createdAt,value
2017-09-22T00:01:56.279Z,12.10
2017-09-22T00:04:24.216Z,12.10
2017-09-22T00:06:51.872Z,12.10
2017-09-22T00:09:19.536Z,12.10
2017-09-22T00:11:47.169Z,12.10
2017-09-22T00:14:14.807Z,11.90
2017-09-22T00:16:42.731Z,11.90
2017-09-22T00:19:11.140Z,11.90
2017-09-22T00:21:38.843Z,11.80
2017-09-22T00:24:07.283Z,11.70
2017-09-22T00:26:34.911Z,11.70
2017-09-22T00:29:02.545Z,11.70
2017-09-22T00:31:30.210Z,11.70
2017-09-22T00:33:57.840Z,11.60
2017-09-22T00:36:25.472Z,11.50
2017-09-22T00:38:53.139Z,11.50
2017-09-22T00:41:20.767Z,11.40
2017-09-22T00:43:48.414Z,11.30
2017-09-22T00:46:16.079Z,11.30
2017-09-22T00:48:43.711Z,11.30
2017-09-22T00:51:11.340Z,11.20
2017-09-22T00:53:39.004Z,11.20
2017-09-22T00:56:06.634Z,11.20
2017-09-22T00:58:34.271Z,11.20
2017-09-22T01:01:02.704Z,11.20
2017-09-22T01:03:30.339Z,11.20
2017-09-22T01:05:57.972Z,11.20
2017-09-22T01:08:25.636Z,11.20
2017-09-22T01:10:53.269Z,11.20
2017-09-22T01:13:20.903Z,11.20
2017-09-22T01:15:48.563Z,11.30
2017-09-22T01:18:16.195Z,11.30
2017-09-22T01:20:43.820Z,11.40
2017-09-22T01:23:11.488Z,11.40
2017-09-22T01:25:39.119Z,11.30
2017-09-22T01:28:06.750Z,11.30
2017-09-22T01:30:35.185Z,11.30
2017-09-22T01:33:02.811Z,11.30
2017-09-22T01:35:30.450Z,11.40
2017-09-22T01:37:58.112Z,11.30
2017-09-22T01:40:25.752Z,11.30
2017-09-22T01:42:53.387Z,11.30
2017-09-22T01:45:21.052Z,11.30
2017-09-22T01:47:48.691Z,11.20
2017-09-22T01:50:16.331Z,11.20
2017-09-22T01:52:43.993Z,11.20
2017-09-22T01:55:11.627Z,11.20
2017-09-22T01:57:39.259Z,11.20
2017-09-22T02:00:06.929Z,11.20
2017-09-22T02:02:34.568Z,11.20
2017-09-22T02:05:02.203Z,11.20
2017-09-22T02:07:29.869Z,11.20
2017-09-22T02:09:57.508Z,11.20
2017-09-22T02:12:25.139Z,11.20
2017-09-22T02:14:52.799Z,11.10
2017-09-22T02:17:20.433Z,11.10
2017-09-22T02:19:48.060Z,11.10
2017-09-22T02:22:15.718Z,11.10
2017-09-22T02:24:43.346Z,11.20
2017-09-22T02:27:10.971Z,11.20
2017-09-22T02:29:39.396Z,11.20
2017-09-22T02:32:07.040Z,11.20
2017-09-22T02:34:34.674Z,11.10
2017-09-22T02:37:02.340Z,11.10
2017-09-22T02:39:29.975Z,11.10
2017-09-22T02:41:57.615Z,11.10
2017-09-22T02:44:25.965Z,11.10
2017-09-22T02:46:53.592Z,11.20
2017-09-22T02:49:21.232Z,11.20
2017-09-22T02:51:49.660Z,11.30
2017-09-22T02:54:17.297Z,11.30
2017-09-22T02:56:44.927Z,11.40
2017-09-22T02:59:12.587Z,11.30
2017-09-22T03:01:40.223Z,11.30
2017-09-22T03:04:07.856Z,11.30
2017-09-22T03:06:35.515Z,11.30
2017-09-22T03:09:03.148Z,11.40
2017-09-22T03:11:30.784Z,11.30
2017-09-22T03:13:58.444Z,11.30
2017-09-22T03:16:26.075Z,11.30
2017-09-22T03:18:53.712Z,11.20
2017-09-22T03:21:21.415Z,11.20
2017-09-22T03:23:49.055Z,11.20
2017-09-22T03:26:16.688Z,11.20
2017-09-22T03:28:44.479Z,11.30
2017-09-22T03:31:12.879Z,11.20
2017-09-22T03:33:40.511Z,11.20
2017-09-22T03:36:08.935Z,11.20
2017-09-22T03:38:36.565Z,11.20
2017-09-22T03:41:04.199Z,11.20
2017-09-22T03:43:31.858Z,11.20
2017-09-22T03:45:59.498Z,11.20
2017-09-22T03:48:27.140Z,11.20
2017-09-22T03:50:54.802Z,11.30
2017-09-22T03:53:22.528Z,11.30
2017-09-22T03:55:50.236Z,11.30
2017-09-22T03:58:18.659Z,11.20
2017-09-22T04:00:46.296Z,11.20
2017-09-22T04:03:13.935Z,11.30
2017-09-22T04:05:41.599Z,11.30
2017-09-22T04:08:09.247Z,11.30
2017-09-22T04:10:36.891Z,11.40
2017-09-22T04:13:04.564Z,11.30
2017-09-22T04:15:32.199Z,11.40
2017-09-22T04:17:59.845Z,11.30
2017-09-22T04:20:27.508Z,11.30
2017-09-22T04:22:55.140Z,11.30
2017-09-22T04:25:22.785Z,11.30
2017-09-22T04:27:50.453Z,11.30
2017-09-22T04:30:18.891Z,11.20
2017-09-22T04:32:46.519Z,11.20
2017-09-22T04:35:14.188Z,11.20
2017-09-22T04:37:41.823Z,11.20
2017-09-22T04:40:09.456Z,11.20
2017-09-22T04:42:37.197Z,11.30
2017-09-22T04:45:04.831Z,11.20
2017-09-22T04:47:32.468Z,11.20
2017-09-22T04:50:01.183Z,11.20
2017-09-22T04:52:29.628Z,11.30
2017-09-22T04:54:57.266Z,11.20
2017-09-22T04:57:24.931Z,11.30
2017-09-22T04:59:52.572Z,11.30
2017-09-22T05:02:20.209Z,11.20
2017-09-22T05:04:47.876Z,11.20
2017-09-22T05:07:15.509Z,11.20
2017-09-22T05:09:43.147Z,11.20
2017-09-22T05:12:10.808Z,11.30
2017-09-22T05:14:38.439Z,11.30
2017-09-22T05:17:06.072Z,11.30
2017-09-22T05:19:34.505Z,11.30
2017-09-22T05:22:02.140Z,11.20
2017-09-22T05:24:29.771Z,11.30
2017-09-22T05:26:57.435Z,11.30
2017-09-22T05:29:25.083Z,11.30
2017-09-22T05:31:52.721Z,11.30
2017-09-22T05:34:20.386Z,11.30
2017-09-22T05:36:48.021Z,11.30
2017-09-22T05:39:15.656Z,11.30
2017-09-22T05:41:43.329Z,11.30
2017-09-22T05:44:10.967Z,11.30
2017-09-22T05:46:38.603Z,11.40
2017-09-22T05:49:06.308Z,11.40
2017-09-22T05:51:33.965Z,11.50
2017-09-22T05:54:01.601Z,11.50
2017-09-22T05:56:29.272Z,11.50
2017-09-22T05:58:57.010Z,11.50
2017-09-22T06:01:24.643Z,11.60
2017-09-22T06:03:52.317Z,11.60
2017-09-22T06:06:20.136Z,11.60
2017-09-22T06:08:47.828Z,11.60
2017-09-22T06:11:15.488Z,11.70
2017-09-22T06:13:44.201Z,11.80
2017-09-22T06:16:11.975Z,11.70
2017-09-22T06:18:39.773Z,11.80
2017-09-22T06:21:07.412Z,11.80
2017-09-22T06:23:35.049Z,11.80
2017-09-22T06:26:02.711Z,11.90
2017-09-22T06:28:30.505Z,11.80
2017-09-22T06:30:58.145Z,11.90
2017-09-22T06:33:25.807Z,12.00
2017-09-22T06:35:53.453Z,12.20
2017-09-22T06:38:21.091Z,12.30
2017-09-22T06:40:48.764Z,12.30
2017-09-22T06:43:16.398Z,12.30
2017-09-22T06:45:44.040Z,12.40
2017-09-22T06:48:11.705Z,12.40
2017-09-22T06:50:39.351Z,12.40
2017-09-22T06:53:06.989Z,12.40
2017-09-22T06:55:34.660Z,12.50
2017-09-22T06:58:02.318Z,12.50
2017-09-22T07:00:29.960Z,12.60
2017-09-22T07:02:57.624Z,12.80
2017-09-22T07:05:26.028Z,13.00
2017-09-22T07:07:53.669Z,13.00
2017-09-22T07:10:21.340Z,13.00
2017-09-22T07:12:48.975Z,13.20
2017-09-22T07:15:16.611Z,13.20
2017-09-22T07:17:44.267Z,13.20
2017-09-22T07:20:11.899Z,13.20
2017-09-22T07:22:39.540Z,13.20
2017-09-22T07:25:07.211Z,13.20
2017-09-22T07:27:34.847Z,13.40
2017-09-22T07:30:02.485Z,13.40
2017-09-22T07:32:30.147Z,13.40
2017-09-22T07:34:57.792Z,13.50
2017-09-22T07:37:25.442Z,13.90
2017-09-22T07:39:53.095Z,14.00
2017-09-22T07:42:20.742Z,14.30
2017-09-22T07:44:48.381Z,14.30
2017-09-22T07:47:16.057Z,14.30
2017-09-22T07:49:43.707Z,14.60
2017-09-22T07:52:11.344Z,14.70
2017-09-22T07:54:39.010Z,15.10
2017-09-22T07:57:06.676Z,15.20
2017-09-22T07:59:34.318Z,15.10
2017-09-22T08:02:02.756Z,15.20
2017-09-22T08:04:30.400Z,15.10
2017-09-22T08:06:58.057Z,15.10
2017-09-22T08:09:25.725Z,15.10
2017-09-22T08:11:54.131Z,15.10
2017-09-22T08:14:21.764Z,15.10
2017-09-22T08:16:49.436Z,15.10
2017-09-22T08:19:17.067Z,15.00
2017-09-22T08:21:44.695Z,15.00
2017-09-22T08:24:12.363Z,15.10
2017-09-22T08:26:40.003Z,15.00
2017-09-22T08:29:07.636Z,15.00
2017-09-22T08:31:35.306Z,15.10
2017-09-22T08:34:02.944Z,15.10
2017-09-22T08:36:30.588Z,15.40
2017-09-22T08:38:58.255Z,15.60
2017-09-22T08:41:25.892Z,15.70
2017-09-22T08:43:53.536Z,16.30
2017-09-22T08:46:21.189Z,16.90
2017-09-22T08:48:48.795Z,17.70
2017-09-22T08:51:16.407Z,18.70
2017-09-22T08:53:44.043Z,18.80
2017-09-22T08:56:11.657Z,18.10
2017-09-22T08:58:39.296Z,17.40
2017-09-22T09:01:07.700Z,18.00
2017-09-22T09:03:35.312Z,17.90
2017-09-22T09:06:02.931Z,18.20
2017-09-22T09:08:30.566Z,18.00
2017-09-22T09:10:58.177Z,18.30
2017-09-22T09:13:25.783Z,18.60
2017-09-22T09:15:53.426Z,18.50
2017-09-22T09:18:21.799Z,17.40
2017-09-22T09:20:50.168Z,17.40
2017-09-22T09:23:18.593Z,17.60
2017-09-22T09:25:46.228Z,17.60
2017-09-22T09:28:13.843Z,17.60
2017-09-22T09:30:41.492Z,17.60
2017-09-22T09:33:09.112Z,17.90
2017-09-22T09:35:37.487Z,18.00
2017-09-22T09:38:05.132Z,17.90
2017-09-22T09:40:32.742Z,17.60
2017-09-22T09:43:00.352Z,17.50
2017-09-22T09:45:28.790Z,17.00
2017-09-22T09:47:56.403Z,17.00
2017-09-22T09:50:24.012Z,17.10
2017-09-22T09:52:51.649Z,17.30
2017-09-22T09:55:19.290Z,17.40
2017-09-22T09:57:46.916Z,17.30
2017-09-22T10:00:14.573Z,17.80
2017-09-22T10:02:42.212Z,18.10
2017-09-22T10:05:10.605Z,18.30
2017-09-22T10:07:38.252Z,18.20
2017-09-22T10:10:05.865Z,18.50
2017-09-22T10:12:34.236Z,18.50
2017-09-22T10:15:01.878Z,18.40
2017-09-22T10:17:29.485Z,18.70
2017-09-22T10:19:57.096Z,18.50
2017-09-22T10:22:24.723Z,18.20
2017-09-22T10:24:52.324Z,17.70
2017-09-22T10:27:19.924Z,17.60
2017-09-22T10:29:47.636Z,17.40
2017-09-22T10:32:16.005Z,17.20
2017-09-22T10:34:44.371Z,17.50
2017-09-22T10:37:13.283Z,17.60
2017-09-22T10:39:40.875Z,17.50
2017-09-22T10:42:08.479Z,17.50
2017-09-22T10:44:36.131Z,17.50
2017-09-22T10:47:03.752Z,17.80
2017-09-22T10:49:31.387Z,17.90
2017-09-22T10:51:59.892Z,18.40
2017-09-22T10:54:27.495Z,18.30
2017-09-22T10:56:55.871Z,18.70
2017-09-22T10:59:23.507Z,18.70
2017-09-22T11:01:51.880Z,18.50
2017-09-22T11:04:19.492Z,18.40
2017-09-22T11:06:47.136Z,18.50
2017-09-22T11:09:14.738Z,18.50
2017-09-22T11:11:42.340Z,18.30
2017-09-22T11:14:10.753Z,18.30
2017-09-22T11:16:38.397Z,18.20
2017-09-22T11:19:06.032Z,18.00
2017-09-22T11:21:33.748Z,17.90
2017-09-22T11:24:02.121Z,17.60
2017-09-22T11:26:29.752Z,17.50
2017-09-22T11:28:57.379Z,17.60
2017-09-22T11:31:24.507Z,17.50
2017-09-22T11:33:51.620Z,17.40
2017-09-22T11:36:19.287Z,17.50
2017-09-22T11:38:46.913Z,17.70
2017-09-22T11:41:14.525Z,17.90
2017-09-22T11:43:42.192Z,17.90
2017-09-22T11:46:09.808Z,18.00
2017-09-22T11:48:38.180Z,18.00
2017-09-22T11:51:05.831Z,17.90
2017-09-22T11:53:33.448Z,18.10
2017-09-22T11:56:01.070Z,18.20
2017-09-22T11:58:28.723Z,18.40
2017-09-22T12:00:56.326Z,18.40
2017-09-22T12:03:23.947Z,18.40
2017-09-22T12:05:52.363Z,18.20
2017-09-22T12:08:19.959Z,18.20
2017-09-22T12:10:48.336Z,18.20
2017-09-22T12:13:15.972Z,18.20
2017-09-22T12:15:43.600Z,18.10
2017-09-22T12:18:11.207Z,18.00
2017-09-22T12:20:38.847Z,18.00
2017-09-22T12:23:06.469Z,18.00
2017-09-22T12:25:34.075Z,18.10
2017-09-22T12:28:01.712Z,18.10
2017-09-22T12:30:29.316Z,18.10
2017-09-22T12:32:56.925Z,18.00
2017-09-22T12:35:24.564Z,18.00
2017-09-22T12:37:52.199Z,18.00
2017-09-22T12:40:19.803Z,18.10
2017-09-22T12:42:47.443Z,18.20
2017-09-22T12:45:15.101Z,18.30
2017-09-22T12:47:42.711Z,18.40
2017-09-22T12:50:11.114Z,19.20
2017-09-22T12:52:38.750Z,19.10
2017-09-22T12:55:06.652Z,19.20
2017-09-22T12:57:34.313Z,19.30
2017-09-22T13:00:01.922Z,19.40
2017-09-22T13:02:33.393Z,19.40
2017-09-22T13:05:01.027Z,19.40
2017-09-22T13:07:29.884Z,19.40
2017-09-22T13:09:57.510Z,19.20
2017-09-22T13:12:26.016Z,19.20
2017-09-22T13:14:53.656Z,19.20
2017-09-22T13:17:21.282Z,19.50
2017-09-22T13:19:48.928Z,19.40
2017-09-22T13:22:16.531Z,19.40
2017-09-22T13:24:44.903Z,19.30
2017-09-22T13:27:13.211Z,19.30
2017-09-22T13:29:40.968Z,19.10
2017-09-22T13:32:09.020Z,19.00
2017-09-22T13:34:36.664Z,18.70
2017-09-22T13:37:04.266Z,18.60
2017-09-22T13:39:32.443Z,18.50
2017-09-22T13:42:00.119Z,18.50
2017-09-22T13:44:27.736Z,18.30
2017-09-22T13:46:55.341Z,18.10
2017-09-22T13:49:23.002Z,17.80
2017-09-22T13:51:50.637Z,17.80
2017-09-22T13:54:18.238Z,17.60
2017-09-22T13:56:45.900Z,17.50
2017-09-22T13:59:13.511Z,17.40
2017-09-22T14:01:41.119Z,17.40
2017-09-22T14:04:09.526Z,17.40
2017-09-22T14:06:37.711Z,17.40
2017-09-22T14:09:05.343Z,17.50
2017-09-22T14:11:33.000Z,17.50
2017-09-22T14:14:00.633Z,17.40
2017-09-22T14:16:28.245Z,17.70
2017-09-22T14:18:57.453Z,18.50
2017-09-22T14:21:25.059Z,18.90
2017-09-22T14:23:53.420Z,18.50
2017-09-22T14:26:21.824Z,18.30
2017-09-22T14:28:49.432Z,18.30
2017-09-22T14:31:17.080Z,18.20
2017-09-22T14:33:45.488Z,18.00
2017-09-22T14:36:13.094Z,17.90
2017-09-22T14:38:40.715Z,17.70
2017-09-22T14:41:09.135Z,17.50
2017-09-22T14:43:36.780Z,17.50
2017-09-22T14:46:04.404Z,17.50
2017-09-22T14:48:32.091Z,17.30
2017-09-22T14:50:59.739Z,17.20
2017-09-22T14:53:27.371Z,17.20
2017-09-22T14:55:55.037Z,17.10
2017-09-22T14:58:22.667Z,17.00
2017-09-22T15:00:50.300Z,17.00
2017-09-22T15:03:17.965Z,16.90
2017-09-22T15:05:45.597Z,17.00
2017-09-22T15:08:13.223Z,17.10
2017-09-22T15:10:40.878Z,17.20
2017-09-22T15:13:08.499Z,17.30
2017-09-22T15:15:36.135Z,17.40
2017-09-22T15:18:03.799Z,17.50
2017-09-22T15:20:31.427Z,17.60
2017-09-22T15:22:59.032Z,17.80
2017-09-22T15:25:26.688Z,17.90
2017-09-22T15:27:54.317Z,17.80
2017-09-22T15:30:21.924Z,17.70
2017-09-22T15:32:49.579Z,17.70
2017-09-22T15:35:17.953Z,17.60
2017-09-22T15:37:45.580Z,17.60
2017-09-22T15:40:13.975Z,17.80
2017-09-22T15:42:41.599Z,17.70
2017-09-22T15:45:09.976Z,17.70
2017-09-22T15:47:37.607Z,17.60
2017-09-22T15:50:05.968Z,17.40
2017-09-22T15:52:33.596Z,17.40
2017-09-22T15:55:02.019Z,17.30
2017-09-22T15:57:29.650Z,17.20
2017-09-22T15:59:57.275Z,17.10
2017-09-22T16:02:24.929Z,17.00
2017-09-22T16:04:52.556Z,16.90
2017-09-22T16:07:20.180Z,16.80
2017-09-22T16:09:48.602Z,16.50
2017-09-22T16:12:16.235Z,16.40
2017-09-22T16:14:43.865Z,16.40
2017-09-22T16:17:11.527Z,16.30
2017-09-22T16:19:39.225Z,16.20
2017-09-22T16:22:06.854Z,16.10
2017-09-22T16:24:34.576Z,16.10
2017-09-22T16:27:02.205Z,16.10
2017-09-22T16:29:29.917Z,16.00
2017-09-22T16:31:57.580Z,16.00
2017-09-22T16:34:25.980Z,16.00
2017-09-22T16:36:53.600Z,15.90
2017-09-22T16:39:21.263Z,15.90
2017-09-22T16:41:49.535Z,15.90
2017-09-22T16:44:17.160Z,15.90
2017-09-22T16:46:44.815Z,15.90
2017-09-22T16:49:12.497Z,15.80
2017-09-22T16:51:40.124Z,15.90
2017-09-22T16:54:07.775Z,15.80
2017-09-22T16:56:35.416Z,15.80
2017-09-22T16:59:03.048Z,15.90
2017-09-22T17:01:30.714Z,16.00
2017-09-22T17:03:58.339Z,16.00
2017-09-22T17:06:25.960Z,16.00
2017-09-22T17:08:54.388Z,15.80
2017-09-22T17:11:22.016Z,15.80
2017-09-22T17:13:49.640Z,15.70
2017-09-22T17:16:17.337Z,15.60
2017-09-22T17:18:44.971Z,15.60
2017-09-22T17:21:12.598Z,15.50
2017-09-22T17:23:40.902Z,15.50
2017-09-22T17:26:09.302Z,15.30
2017-09-22T17:28:36.926Z,15.20
2017-09-22T17:31:05.352Z,15.20
2017-09-22T17:33:32.964Z,15.10
2017-09-22T17:36:00.664Z,15.10
2017-09-22T17:38:28.329Z,14.90
2017-09-22T17:40:55.963Z,14.90
2017-09-22T17:43:23.587Z,14.80
2017-09-22T17:45:51.242Z,14.70
2017-09-22T17:48:18.871Z,14.60
2017-09-22T17:50:46.510Z,14.40
2017-09-22T17:53:14.917Z,14.30
2017-09-22T17:55:42.538Z,14.20
2017-09-22T17:58:10.269Z,14.20
2017-09-22T18:00:37.920Z,14.00
2017-09-22T18:03:06.348Z,13.90
2017-09-22T18:05:34.585Z,13.80
2017-09-22T18:08:02.271Z,13.70
2017-09-22T18:10:30.430Z,13.60
2017-09-22T18:12:59.549Z,13.40
2017-09-22T18:15:28.673Z,13.30
2017-09-22T18:17:58.437Z,13.20
2017-09-22T18:20:28.716Z,13.10
2017-09-22T18:22:57.233Z,13.10
2017-09-22T18:25:25.657Z,12.90
2017-09-22T18:27:53.312Z,12.90
2017-09-22T18:30:21.667Z,12.90
2017-09-22T18:32:49.332Z,12.80
2017-09-22T18:35:16.963Z,12.80
2017-09-22T18:37:44.585Z,12.70
2017-09-22T18:40:12.239Z,12.70
2017-09-22T18:42:40.297Z,12.60
2017-09-22T18:45:08.008Z,12.60
2017-09-22T18:47:37.372Z,12.40
2017-09-22T18:50:08.771Z,12.30
2017-09-22T18:52:37.863Z,12.20
2017-09-22T18:55:05.495Z,12.20
2017-09-22T18:57:33.130Z,12.10
2017-09-22T19:00:00.803Z,12.20
2017-09-22T19:02:28.432Z,12.30
2017-09-22T19:05:06.525Z,12.20
2017-09-22T19:07:34.796Z,12.00
2017-09-22T19:10:02.458Z,11.90
2017-09-22T19:12:30.082Z,11.90
2017-09-22T19:14:57.741Z,11.90
2017-09-22T19:17:25.412Z,11.90
2017-09-22T19:19:53.035Z,11.80
2017-09-22T19:22:20.673Z,11.90
2017-09-22T19:24:48.331Z,11.90
2017-09-22T19:27:15.959Z,11.70
2017-09-22T19:29:43.592Z,11.70
2017-09-22T19:32:11.520Z,11.70
2017-09-22T19:34:39.152Z,11.80
2017-09-22T19:37:07.553Z,11.60
2017-09-22T19:39:35.483Z,11.60
2017-09-22T19:42:03.124Z,11.60
2017-09-22T19:44:31.523Z,11.50
2017-09-22T19:46:59.195Z,11.40
2017-09-22T19:49:26.840Z,11.40
2017-09-22T19:51:54.495Z,11.40
2017-09-22T19:54:22.200Z,11.40
2017-09-22T19:56:49.836Z,11.30
2017-09-22T19:59:17.463Z,11.20
2017-09-22T20:01:45.887Z,11.20
2017-09-22T20:04:13.528Z,11.20
2017-09-22T20:06:41.161Z,11.20
2017-09-22T20:09:08.823Z,11.10
2017-09-22T20:11:36.457Z,11.10
2017-09-22T20:14:04.091Z,11.00
2017-09-22T20:16:31.773Z,10.90
2017-09-22T20:18:59.407Z,10.90
2017-09-22T20:21:27.045Z,10.90
2017-09-22T20:23:54.714Z,10.90
2017-09-22T20:26:22.347Z,10.90
2017-09-22T20:28:49.991Z,10.80
2017-09-22T20:31:17.661Z,10.70
2017-09-22T20:33:45.295Z,10.80
2017-09-22T20:36:12.935Z,10.70
2017-09-22T20:38:40.597Z,10.60
2017-09-22T20:41:08.236Z,10.60
2017-09-22T20:43:35.878Z,10.60
2017-09-22T20:46:03.657Z,10.60
2017-09-22T20:48:31.397Z,10.50
2017-09-22T20:50:59.159Z,10.50
2017-09-22T20:53:28.131Z,10.30
2017-09-22T20:55:55.767Z,10.30
2017-09-22T20:58:24.780Z,10.30
2017-09-22T21:00:52.446Z,10.40
2017-09-22T21:03:20.082Z,10.40
2017-09-22T21:05:47.711Z,10.30
2017-09-22T21:08:16.811Z,10.20
2017-09-22T21:10:44.446Z,10.20
2017-09-22T21:13:13.585Z,10.30
2017-09-22T21:15:43.080Z,10.20
2017-09-22T21:18:11.985Z,10.40
2017-09-22T21:20:43.200Z,10.20
2017-09-22T21:23:12.257Z,10.20
2017-09-22T21:25:40.341Z,10.10
2017-09-22T21:28:08.592Z,10.10
2017-09-22T21:30:36.256Z,10.00
2017-09-22T21:33:05.460Z,9.90
2017-09-22T21:35:33.573Z,9.90
2017-09-22T21:38:01.295Z,10.00
2017-09-22T21:40:28.923Z,10.10
2017-09-22T21:42:56.584Z,10.00
2017-09-22T21:45:24.243Z,9.90
2017-09-22T21:47:51.881Z,9.90
2017-09-22T21:50:19.507Z,9.90
2017-09-22T21:52:47.168Z,9.90
2017-09-22T21:55:14.796Z,9.90
2017-09-22T21:57:42.428Z,9.80
2017-09-22T22:00:10.850Z,9.70
2017-09-22T22:02:39.394Z,9.70
2017-09-22T22:05:12.875Z,9.80
2017-09-22T22:07:40.519Z,9.70
2017-09-22T22:10:08.149Z,9.60
2017-09-22T22:12:35.816Z,9.50
2017-09-22T22:15:03.444Z,9.50
2017-09-22T22:17:31.071Z,9.40
2017-09-22T22:19:59.495Z,9.50
2017-09-22T22:22:27.118Z,9.40
2017-09-22T22:24:54.747Z,9.40
2017-09-22T22:27:22.409Z,9.50
2017-09-22T22:29:50.032Z,9.40
2017-09-22T22:32:17.656Z,9.30
2017-09-22T22:34:46.083Z,9.30
2017-09-22T22:37:13.707Z,9.20
2017-09-22T22:39:42.331Z,9.30
2017-09-22T22:42:09.992Z,9.30
2017-09-22T22:44:38.382Z,9.20
2017-09-22T22:47:06.007Z,9.10
2017-09-22T22:49:34.431Z,9.10
2017-09-22T22:52:02.056Z,9.00
2017-09-22T22:54:29.679Z,9.10
2017-09-22T22:56:57.340Z,9.10
2017-09-22T22:59:24.963Z,9.10
2017-09-22T23:01:52.591Z,9.00
2017-09-22T23:04:21.020Z,9.10
2017-09-22T23:06:48.653Z,9.00
2017-09-22T23:09:16.290Z,9.10
2017-09-22T23:11:43.947Z,9.00
2017-09-22T23:14:11.571Z,8.90
2017-09-22T23:16:39.199Z,8.90
2017-09-22T23:19:06.872Z,8.90
2017-09-22T23:21:34.509Z,8.90
2017-09-22T23:24:02.146Z,8.90
2017-09-22T23:26:29.799Z,8.90
2017-09-22T23:28:57.432Z,8.80
2017-09-22T23:31:25.827Z,8.80
2017-09-22T23:33:53.496Z,8.70
2017-09-22T23:36:21.137Z,8.60
2017-09-22T23:38:48.772Z,8.70
2017-09-22T23:41:16.430Z,8.70
2017-09-22T23:43:44.071Z,8.60
2017-09-22T23:46:11.707Z,8.60
2017-09-22T23:48:39.371Z,8.60
2017-09-22T23:51:07.000Z,8.60
2017-09-22T23:53:34.657Z,8.50
2017-09-22T23:56:02.324Z,8.50
2017-09-22T23:58:29.956Z,8.50
